Time;durP1;ratioP1;P1;durP2;ratioP2;P2;SDS_P1;SDS_P2;PMS_P1;PMS_P2;Temp;Humidity;BMP_temperature;BMP_pressure;BME280_temperature;BME280_humidity;BME280_pressure;Samples;Min_cycle;Max_cycle;Signal;HPM_P1;HPM_P2
2022/06/17 00:00:12;;;;;;;;;;;26.70;69.00;26.80;99938.00;;;;344506;28;86894;-92
2022/06/17 00:00:24;;;;;;;;;;;26.70;69.10;26.80;99939.00;;;;344780;28;90178;-91
2022/06/17 00:00:36;;;;;;;;;;;26.70;69.10;26.70;99939.00;;;;346154;28;86693;-91
2022/06/17 00:00:50;;;;;;;;;;;26.70;69.20;26.80;99938.00;;;;346469;28;88961;-91
2022/06/17 00:01:02;;;;;;;;;;;26.70;69.20;26.60;99936.00;;;;345589;28;87589;-92
2022/06/17 00:01:14;;;;;;;;;;;26.70;69.10;26.50;99944.00;;;;344365;28;91069;-91
2022/06/17 00:01:27;;;;;;;;;;;26.70;69.00;26.60;99939.00;;;;344533;28;86909;-91
2022/06/17 00:01:39;;;;;;;;;;;26.70;69.40;26.70;99936.00;;;;345437;28;91421;-92
2022/06/17 00:01:51;;;;;;;;;;;26.70;69.40;26.70;99941.00;;;;340259;28;88111;-92
2022/06/17 00:02:04;;;;;;;;;;;26.70;69.30;26.70;99931.00;;;;347439;28;91060;-91
2022/06/17 00:02:15;;;;;;;;;;;26.70;69.20;26.70;99937.00;;;;345859;28;88163;-91
2022/06/17 00:02:29;;;;;;;;;;;26.70;69.30;26.70;99941.00;;;;344646;28;89943;-91
2022/06/17 00:02:41;;;;;;;;;;;26.70;69.30;26.70;99942.00;;;;345930;28;87421;-91
2022/06/17 00:02:53;;;;;;;;;;;26.70;69.20;26.60;99946.00;;;;344577;28;90776;-92
2022/06/17 00:03:05;;;;;;;;;;;26.70;69.40;26.60;99943.00;;;;344457;28;87106;-91
2022/06/17 00:03:17;;;;;;;;;;;26.60;69.30;26.60;99938.00;;;;347600;28;89571;-91
2022/06/17 00:03:31;;;;;;;;;;;26.70;69.40;26.50;99942.00;;;;347138;28;88494;-91
2022/06/17 00:03:43;;;;;;;;;;;26.70;69.70;26.50;99944.00;;;;347322;28;93088;-91
2022/06/17 00:03:55;;;;;;;;;;;26.60;69.40;26.50;99946.00;;;;345836;28;87046;-91
2022/06/17 00:04:08;;;;;;;;;;;26.60;69.30;26.40;99945.00;;;;346193;28;89835;-91
2022/06/17 00:04:20;;;;;;;;;;;26.60;69.20;26.50;99944.00;;;;347347;28;87332;-91
2022/06/17 00:04:32;;;;;;;;;;;26.60;69.20;26.50;99939.00;;;;347483;28;89682;-91
2022/06/17 00:04:44;;;;;;;;;;;26.60;69.30;26.50;99942.00;;;;346985;28;87554;-91
2022/06/17 00:04:56;;;;;;;;;;;26.60;69.30;26.50;99941.00;;;;344702;28;90600;-91
2022/06/17 00:05:08;;;;;;;;;;;26.60;69.40;26.40;99944.00;;;;348702;27;87868;-91
2022/06/17 00:05:20;;;;;;;;;;;26.60;69.50;26.50;99947.00;;;;347586;28;90057;-91
2022/06/17 00:05:32;;;;;;;;;;;26.60;69.40;26.60;99953.00;;;;345732;28;87019;-92
2022/06/17 00:05:44;;;;;;;;;;;26.60;69.60;26.60;99943.00;;;;346170;28;89374;-91
2022/06/17 00:05:56;;;;;;;;;;;26.60;69.70;26.60;99940.00;;;;345862;28;88351;-91
2022/06/17 00:06:09;;;;;;;;;;;26.60;70.00;26.50;99944.00;;;;345990;28;90124;-91
2022/06/17 00:06:22;;;;;;;;;;;26.60;69.70;26.60;99942.00;;;;344470;28;88321;-92
2022/06/17 00:06:39;;;;;;;;;;;26.60;69.60;26.60;99946.00;;;;344607;28;89919;-91
2022/06/17 00:07:05;;;;;;;;;;;26.60;69.40;26.50;99947.00;;;;347498;27;87113;-91
2022/06/17 00:07:16;;;;;;;;;;;26.60;69.50;26.50;99942.00;;;;344823;28;90274;-91
2022/06/17 00:07:28;;;;;;;;;;;26.60;69.40;26.60;99937.00;;;;344469;28;87920;-92
2022/06/17 00:07:40;;;;;;;;;;;26.60;69.50;26.50;99942.00;;;;344216;28;90874;-91
2022/06/17 00:07:52;;;;;;;;;;;26.60;69.70;26.50;99942.00;;;;347244;28;87266;-91
2022/06/17 00:08:05;;;;;;;;;;;26.60;69.60;26.50;99944.00;;;;347442;28;91128;-91
2022/06/17 00:08:22;;;;;;;;;;;26.50;69.40;26.60;99941.00;;;;347327;28;88609;-91
2022/06/17 00:08:37;;;;;;;;;;;26.60;69.40;26.60;99942.00;;;;340453;28;90831;-90
2022/06/17 00:08:50;;;;;;;;;;;26.50;69.50;26.60;99946.00;;;;345854;28;88528;-91
2022/06/17 00:09:03;;;;;;;;;;;26.60;69.60;26.50;99945.00;;;;347494;28;91317;-91
2022/06/17 00:09:15;;;;;;;;;;;26.60;69.60;26.50;99939.00;;;;344227;28;86808;-91
2022/06/17 00:09:28;;;;;;;;;;;26.60;69.70;26.50;99938.00;;;;346180;28;89225;-91
2022/06/17 00:09:40;;;;;;;;;;;26.50;69.60;26.50;99945.00;;;;346208;28;88431;-91
2022/06/17 00:09:52;;;;;;;;;;;26.50;69.50;26.50;99944.00;;;;346199;28;90656;-91
2022/06/17 00:10:05;;;;;;;;;;;26.50;69.40;26.50;99936.00;;;;344532;28;87202;-91
2022/06/17 00:10:22;;;;;;;;;;;26.50;69.40;26.50;99938.00;;;;346299;28;89465;-91
2022/06/17 00:10:34;;;;;;;;;;;26.50;69.40;26.50;99936.00;;;;344500;28;88905;-91
2022/06/17 00:10:46;;;;;;;;;;;26.50;69.50;26.50;99939.00;;;;339262;28;87269;-91
2022/06/17 00:10:58;;;;;;;;;;;26.60;69.60;26.60;99943.00;;;;338908;28;86517;-91
2022/06/17 00:11:15;;;;;;;;;;;26.50;69.50;26.60;99941.00;;;;344763;28;89908;-91
2022/06/17 00:11:31;;;;;;;;;;;26.50;69.60;26.60;99944.00;;;;344528;28;86705;-91
2022/06/17 00:11:43;;;;;;;;;;;26.50;69.60;26.60;99937.00;;;;346168;28;88839;-91
2022/06/17 00:11:55;;;;;;;;;;;26.50;69.80;26.50;99939.00;;;;345926;28;86953;-91
2022/06/17 00:12:10;;;;;;;;;;;26.50;69.70;26.50;99939.00;;;;338867;28;90471;-91
2022/06/17 00:12:23;;;;;;;;;;;26.50;69.70;26.50;99942.00;;;;344355;28;86217;-91
2022/06/17 00:12:34;;;;;;;;;;;26.50;69.60;26.50;99941.00;;;;346444;28;90085;-91
2022/06/17 00:12:47;;;;;;;;;;;26.50;69.60;26.50;99945.00;;;;345580;28;87097;-92
2022/06/17 00:12:59;;;;;;;;;;;26.50;69.70;26.50;99945.00;;;;343325;28;89915;-91
2022/06/17 00:13:15;;;;;;;;;;;26.50;69.80;26.50;99942.00;;;;348538;27;88126;-92
2022/06/17 00:13:27;;;;;;;;;;;26.50;69.80;26.50;99945.00;;;;346139;28;89957;-92
2022/06/17 00:13:39;;;;;;;;;;;26.50;69.80;26.50;99937.00;;;;341854;28;87402;-91
2022/06/17 00:13:51;;;;;;;;;;;26.50;69.80;26.50;99941.00;;;;339177;28;88836;-91
2022/06/17 00:14:05;;;;;;;;;;;26.50;69.70;26.50;99942.00;;;;340260;28;88545;-92
2022/06/17 00:14:22;;;;;;;;;;;26.50;69.70;26.50;99949.00;;;;347571;28;89701;-91
2022/06/17 00:15:11;;;;;;;;;;;26.50;69.90;26.30;99942.00;;;;341544;28;87702;-91
2022/06/17 00:15:11;;;;;;;;;;;26.50;69.90;26.40;99948.00;;;;339131;28;90916;-90
2022/06/17 00:15:23;;;;;;;;;;;26.40;69.90;26.50;99940.00;;;;340277;28;88134;-91
2022/06/17 00:15:35;;;;;;;;;;;26.50;70.00;26.50;99947.00;;;;343436;28;89514;-91
2022/06/17 00:15:47;;;;;;;;;;;26.50;69.90;26.50;99950.00;;;;348267;27;86936;-92
2022/06/17 00:15:59;;;;;;;;;;;26.40;69.80;26.40;99948.00;;;;347383;28;89731;-91
2022/06/17 00:16:12;;;;;;;;;;;26.50;69.90;26.50;99948.00;;;;341578;28;86934;-92
2022/06/17 00:16:29;;;;;;;;;;;26.50;69.80;26.50;99943.00;;;;341849;28;90031;-92
2022/06/17 00:16:41;;;;;;;;;;;26.50;70.00;26.40;99944.00;;;;343224;28;87083;-92
2022/06/17 00:16:53;;;;;;;;;;;26.50;69.90;26.40;99947.00;;;;348859;27;90709;-91
2022/06/17 00:17:08;;;;;;;;;;;26.50;69.90;26.40;99942.00;;;;343136;28;87110;-92
2022/06/17 00:17:21;;;;;;;;;;;26.40;70.00;26.50;99945.00;;;;344739;28;90733;-92
2022/06/17 00:17:33;;;;;;;;;;;26.40;70.00;26.40;99941.00;;;;347179;28;88647;-91
2022/06/17 00:17:53;;;;;;;;;;;26.40;70.00;26.40;99950.00;;;;344667;28;89846;-91
2022/06/17 00:18:05;;;;;;;;;;;26.40;70.00;26.50;99942.00;;;;344483;28;87671;-91
2022/06/17 00:18:17;;;;;;;;;;;26.50;70.20;26.50;99941.00;;;;347437;28;90913;-91
2022/06/17 00:18:29;;;;;;;;;;;26.50;70.00;26.50;99942.00;;;;345952;28;87591;-92
2022/06/17 00:18:41;;;;;;;;;;;26.50;70.00;26.50;99947.00;;;;345731;28;88932;-92
2022/06/17 00:18:53;;;;;;;;;;;26.50;70.00;26.50;99949.00;;;;345586;28;87104;-92
2022/06/17 00:19:05;;;;;;;;;;;26.50;69.90;26.50;99946.00;;;;343684;28;91195;-91
2022/06/17 00:19:18;;;;;;;;;;;26.50;70.00;26.50;99945.00;;;;339019;28;86889;-91
2022/06/17 00:19:30;;;;;;;;;;;26.50;70.10;26.30;99947.00;;;;340204;28;90512;-91
2022/06/17 00:19:41;;;;;;;;;;;26.50;70.30;26.40;99953.00;;;;340194;28;88028;-91
2022/06/17 00:19:53;;;;;;;;;;;26.40;70.20;26.30;99947.00;;;;339181;28;90829;-91
2022/06/17 00:20:07;;;;;;;;;;;26.40;70.30;26.30;99945.00;;;;338854;28;86536;-91
2022/06/17 00:20:21;;;;;;;;;;;26.40;70.10;26.40;99950.00;;;;339045;28;89877;-92
2022/06/17 00:20:34;;;;;;;;;;;26.40;70.20;26.40;99946.00;;;;340175;28;85956;-91
2022/06/17 00:20:47;;;;;;;;;;;26.40;70.30;26.30;99944.00;;;;338922;28;89596;-91
2022/06/17 00:20:59;;;;;;;;;;;26.40;70.50;26.30;99940.00;;;;339887;28;87189;-91
2022/06/17 00:21:32;;;;;;;;;;;26.40;70.30;26.40;99955.00;;;;341694;28;90219;-91
2022/06/17 00:21:46;;;;;;;;;;;26.40;70.30;26.40;99955.00;;;;345218;28;88017;-91
2022/06/17 00:21:58;;;;;;;;;;;26.40;70.30;26.40;99953.00;;;;344794;28;90726;-91
2022/06/17 00:22:10;;;;;;;;;;;26.40;70.30;26.40;99954.00;;;;346835;28;87708;-91
2022/06/17 00:22:22;;;;;;;;;;;26.40;70.10;26.30;99947.00;;;;340490;28;89914;-91
2022/06/17 00:22:35;;;;;;;;;;;26.40;70.40;26.30;99952.00;;;;348214;27;88349;-91
2022/06/17 00:22:47;;;;;;;;;;;26.40;70.30;26.40;99950.00;;;;346076;28;90999;-91
2022/06/17 00:22:58;;;;;;;;;;;26.40;70.40;26.30;99945.00;;;;345871;28;87652;-92
2022/06/17 00:23:12;;;;;;;;;;;26.40;70.40;26.30;99952.00;;;;344691;28;89947;-91
2022/06/17 00:23:24;;;;;;;;;;;26.30;70.20;26.40;99961.00;;;;345814;28;87064;-91
2022/06/17 00:23:36;;;;;;;;;;;26.30;70.40;26.40;99952.00;;;;344581;28;90108;-91
2022/06/17 00:23:48;;;;;;;;;;;26.30;70.20;26.40;99956.00;;;;344262;28;87711;-91
2022/06/17 00:24:00;;;;;;;;;;;26.30;70.30;26.30;99950.00;;;;347252;28;91257;-91
2022/06/17 00:24:17;;;;;;;;;;;26.30;70.60;26.30;99949.00;;;;344201;28;88283;-91
2022/06/17 00:24:32;;;;;;;;;;;26.40;70.60;26.30;99956.00;;;;346132;28;90547;-91
2022/06/17 00:24:44;;;;;;;;;;;26.30;70.10;26.40;99955.00;;;;348628;27;87971;-91
2022/06/17 00:24:56;;;;;;;;;;;26.30;70.10;26.40;99954.00;;;;346119;28;90712;-91
2022/06/17 00:25:28;;;;;;;;;;;26.40;70.10;26.40;99953.00;;;;347221;28;87038;-92
2022/06/17 00:25:40;;;;;;;;;;;26.30;70.10;26.30;99952.00;;;;346494;28;90261;-92
2022/06/17 00:25:52;;;;;;;;;;;26.40;70.20;26.40;99956.00;;;;345755;28;87670;-91
2022/06/17 00:26:04;;;;;;;;;;;26.30;70.20;26.40;99950.00;;;;348749;27;91124;-91
2022/06/17 00:26:15;;;;;;;;;;;26.30;70.30;26.30;99955.00;;;;345710;28;87363;-92
2022/06/17 00:26:27;;;;;;;;;;;26.30;70.40;26.20;99950.00;;;;344746;28;90122;-91
2022/06/17 00:26:39;;;;;;;;;;;26.40;70.20;26.30;99957.00;;;;347203;28;86979;-91
2022/06/17 00:26:51;;;;;;;;;;;26.30;70.00;26.30;99954.00;;;;338991;28;91063;-91
2022/06/17 00:27:03;;;;;;;;;;;26.30;70.30;26.30;99950.00;;;;345821;28;88602;-91
2022/06/17 00:27:15;;;;;;;;;;;26.30;70.50;26.30;99957.00;;;;344701;28;90272;-92
2022/06/17 00:27:27;;;;;;;;;;;26.30;70.30;26.20;99956.00;;;;345756;28;88488;-91
2022/06/17 00:27:39;;;;;;;;;;;26.30;70.20;26.20;99953.00;;;;346311;28;89343;-92
2022/06/17 00:27:51;;;;;;;;;;;26.30;70.20;26.20;99952.00;;;;346449;28;87320;-91
2022/06/17 00:28:05;;;;;;;;;;;26.30;70.20;26.30;99951.00;;;;347192;28;89941;-91
2022/06/17 00:28:19;;;;;;;;;;;26.30;70.20;26.20;99951.00;;;;337456;28;88013;-91
2022/06/17 00:28:30;;;;;;;;;;;26.30;70.30;26.20;99947.00;;;;347539;28;89972;-90
2022/06/17 00:28:42;;;;;;;;;;;26.30;70.50;26.20;99955.00;;;;347215;28;86800;-91
2022/06/17 00:28:54;;;;;;;;;;;26.30;70.40;26.20;99944.00;;;;343183;28;90919;-91
2022/06/17 00:29:15;;;;;;;;;;;26.30;70.30;26.20;99954.00;;;;344463;28;86979;-91
2022/06/17 00:29:28;;;;;;;;;;;26.30;70.40;26.30;99947.00;;;;345733;28;91391;-91
2022/06/17 00:29:40;;;;;;;;;;;26.30;70.30;26.30;99954.00;;;;345942;28;86910;-91
2022/06/17 00:29:51;;;;;;;;;;;26.30;70.30;26.30;99951.00;;;;346160;28;89186;-91
2022/06/17 00:30:18;;;;;;;;;;;26.30;70.20;26.30;99956.00;;;;347050;28;86968;-91
2022/06/17 00:30:32;;;;;;;;;;;26.30;70.20;26.30;99950.00;;;;346902;28;90912;-91
2022/06/17 00:30:45;;;;;;;;;;;26.30;70.20;26.40;99952.00;;;;345212;28;87058;-91
2022/06/17 00:30:56;;;;;;;;;;;26.30;70.90;26.30;99958.00;;;;344613;28;90036;-91
2022/06/17 00:31:08;;;;;;;;;;;26.30;70.20;26.30;99950.00;;;;346715;28;86969;-91
2022/06/17 00:31:20;;;;;;;;;;;26.30;70.30;26.20;99948.00;;;;344554;28;91162;-91
2022/06/17 00:31:32;;;;;;;;;;;26.30;70.30;26.20;99945.00;;;;345798;28;87311;-91
2022/06/17 00:31:44;;;;;;;;;;;26.30;70.40;26.20;99951.00;;;;346144;28;90705;-92
2022/06/17 00:31:59;;;;;;;;;;;26.30;70.50;26.30;99957.00;;;;344352;28;88086;-90
2022/06/17 00:32:11;;;;;;;;;;;26.30;70.30;26.20;99955.00;;;;345863;28;89306;-91
2022/06/17 00:32:23;;;;;;;;;;;26.30;70.40;26.30;99952.00;;;;344563;28;86927;-91
2022/06/17 00:32:35;;;;;;;;;;;26.30;70.10;26.20;99947.00;;;;344715;28;91721;-91
2022/06/17 00:32:47;;;;;;;;;;;26.30;70.20;26.20;99951.00;;;;344463;28;88008;-91
2022/06/17 00:33:01;;;;;;;;;;;26.30;70.20;26.20;99955.00;;;;346070;28;90829;-91
2022/06/17 00:33:13;;;;;;;;;;;26.30;70.20;26.20;99951.00;;;;345787;28;86954;-92
2022/06/17 00:33:24;;;;;;;;;;;26.30;70.20;26.30;99953.00;;;;345829;28;90811;-90
2022/06/17 00:33:36;;;;;;;;;;;26.30;70.20;26.20;99947.00;;;;345555;28;89773;-91
2022/06/17 00:33:48;;;;;;;;;;;26.30;70.50;26.20;99957.00;;;;344971;28;89780;-91
2022/06/17 00:34:00;;;;;;;;;;;26.30;70.20;26.20;99957.00;;;;344434;28;87122;-91
2022/06/17 00:34:12;;;;;;;;;;;26.30;70.10;26.20;99943.00;;;;341661;28;90042;-91
2022/06/17 00:34:24;;;;;;;;;;;26.30;70.10;26.00;99953.00;;;;344607;28;86913;-91
2022/06/17 00:34:36;;;;;;;;;;;26.30;70.00;26.00;99954.00;;;;344995;28;89785;-91
2022/06/17 00:34:48;;;;;;;;;;;26.30;70.10;26.00;99951.00;;;;344345;28;88049;-91
2022/06/17 00:34:59;;;;;;;;;;;26.20;70.00;26.10;99953.00;;;;345807;28;90502;-91
2022/06/17 00:35:11;;;;;;;;;;;26.20;70.00;26.10;99953.00;;;;345781;28;87963;-91
2022/06/17 00:35:24;;;;;;;;;;;26.20;70.00;26.00;99948.00;;;;347368;28;91318;-91
2022/06/17 00:35:38;;;;;;;;;;;26.30;70.00;25.90;99950.00;;;;345322;28;87111;-91
2022/06/17 00:35:53;;;;;;;;;;;26.20;69.90;26.00;99951.00;;;;347289;28;90852;-91
2022/06/17 00:36:05;;;;;;;;;;;26.20;70.00;26.00;99956.00;;;;345728;28;88384;-91
2022/06/17 00:36:18;;;;;;;;;;;26.20;70.50;25.90;99953.00;;;;344374;28;89936;-91
2022/06/17 00:36:29;;;;;;;;;;;26.10;70.10;26.00;99945.00;;;;345912;28;86891;-91
2022/06/17 00:36:41;;;;;;;;;;;26.20;70.20;26.00;99947.00;;;;345576;28;90473;-91
2022/06/17 00:36:57;;;;;;;;;;;26.10;70.20;26.00;99948.00;;;;348447;27;87984;-91
2022/06/17 00:37:11;;;;;;;;;;;26.10;70.20;26.00;99948.00;;;;341462;28;89776;-91
2022/06/17 00:37:23;;;;;;;;;;;26.20;70.50;26.00;99954.00;;;;340181;28;86654;-91
2022/06/17 00:37:35;;;;;;;;;;;26.10;70.30;26.00;99955.00;;;;341357;28;90906;-91
2022/06/17 00:37:47;;;;;;;;;;;26.10;70.50;26.10;99946.00;;;;345909;28;86898;-91
2022/06/17 00:38:00;;;;;;;;;;;26.10;70.40;26.10;99946.00;;;;347458;28;91064;-91
2022/06/17 00:38:14;;;;;;;;;;;26.10;70.30;26.10;99947.00;;;;340141;28;88297;-91
2022/06/17 00:38:29;;;;;;;;;;;26.10;70.30;26.10;99953.00;;;;345341;28;90446;-89
2022/06/17 00:38:41;;;;;;;;;;;26.10;70.50;26.10;99947.00;;;;345566;28;88027;-91
2022/06/17 00:38:53;;;;;;;;;;;26.10;70.60;26.00;99951.00;;;;340369;28;90827;-91
2022/06/17 00:39:32;;;;;;;;;;;26.10;70.60;25.80;99949.00;;;;341525;28;88056;-91
2022/06/17 00:39:43;;;;;;;;;;;26.10;70.70;25.90;99949.00;;;;344174;27;90835;-91
2022/06/17 00:39:55;;;;;;;;;;;26.00;70.30;25.90;99951.00;;;;347037;28;88376;-91
2022/06/17 00:40:13;;;;;;;;;;;26.10;70.30;25.90;99961.00;;;;347393;28;89931;-91
2022/06/17 00:40:26;;;;;;;;;;;26.00;70.00;25.90;99949.00;;;;344074;28;88040;-92
2022/06/17 00:40:38;;;;;;;;;;;26.00;70.00;26.00;99960.00;;;;345096;28;89746;-91
2022/06/17 00:40:50;;;;;;;;;;;26.00;70.20;26.00;99957.00;;;;345688;28;88019;-91
2022/06/17 00:41:13;;;;;;;;;;;26.00;70.20;26.00;99958.00;;;;344631;28;89652;-90
2022/06/17 00:41:34;;;;;;;;;;;26.00;70.30;26.00;99960.00;;;;345865;28;87448;-90
2022/06/17 00:41:51;;;;;;;;;;;26.10;70.20;25.90;99956.00;;;;347460;28;90666;-91
2022/06/17 00:42:08;;;;;;;;;;;26.00;70.20;25.90;99958.00;;;;345756;28;87327;-92
2022/06/17 00:42:21;;;;;;;;;;;26.00;70.20;25.90;99947.00;;;;347443;28;91297;-91
2022/06/17 00:42:33;;;;;;;;;;;26.00;70.20;25.90;99961.00;;;;345600;28;86788;-91
2022/06/17 00:42:45;;;;;;;;;;;26.00;70.40;26.00;99956.00;;;;349827;27;90361;-92
2022/06/17 00:42:57;;;;;;;;;;;26.00;70.50;26.00;99955.00;;;;345840;28;88245;-90
2022/06/17 00:43:24;;;;;;;;;;;26.00;70.50;26.00;99960.00;;;;348022;27;90916;-91
2022/06/17 00:43:36;;;;;;;;;;;26.00;70.40;26.00;99953.00;;;;343361;28;86341;-91
2022/06/17 00:43:48;;;;;;;;;;;26.00;70.50;26.00;99950.00;;;;343092;28;88764;-91
2022/06/17 00:44:00;;;;;;;;;;;26.00;70.60;26.00;99953.00;;;;340269;28;87743;-91
2022/06/17 00:44:24;;;;;;;;;;;26.00;70.80;25.90;99958.00;;;;340296;28;91719;-91
2022/06/17 00:44:59;;;;;;;;;;;26.00;70.70;26.00;99953.00;;;;340112;28;87917;-90
2022/06/17 00:45:28;;;;;;;;;;;26.00;71.20;25.90;99947.00;;;;341844;28;87022;-90
2022/06/17 00:45:46;;;;;;;;;;;26.00;70.70;25.90;99954.00;;;;343984;28;88429;-91
2022/06/17 00:46:18;;;;;;;;;;;26.00;70.60;25.90;99961.00;;;;347472;28;89545;-91
2022/06/17 00:46:41;;;;;;;;;;;26.00;70.60;25.90;99958.00;;;;348665;27;88442;-91
2022/06/17 00:47:17;;;;;;;;;;;26.00;70.30;25.90;99949.00;;;;346977;27;90133;-91
2022/06/17 00:47:45;;;;;;;;;;;26.00;70.30;25.80;99955.00;;;;345801;28;86656;-91
2022/06/17 00:48:05;;;;;;;;;;;26.00;70.40;25.80;99950.00;;;;346170;28;90302;-91
2022/06/17 00:48:20;;;;;;;;;;;25.90;70.20;25.70;99952.00;;;;345477;28;87921;-91
2022/06/17 00:48:38;;;;;;;;;;;25.90;70.40;25.80;99949.00;;;;343008;28;90001;-91
2022/06/17 00:48:57;;;;;;;;;;;25.90;70.50;25.80;99955.00;;;;345628;28;87041;-92
2022/06/17 00:49:26;;;;;;;;;;;25.90;70.50;25.90;99957.00;;;;348259;27;90030;-91
2022/06/17 00:49:44;;;;;;;;;;;25.90;70.40;25.80;99948.00;;;;345259;28;87266;-91
2022/06/17 00:50:15;;;;;;;;;;;25.90;70.40;25.80;99950.00;;;;346561;28;89741;-91
2022/06/17 00:50:52;;;;;;;;;;;25.90;70.40;25.80;99951.00;;;;344971;28;87409;-91
2022/06/17 00:51:18;;;;;;;;;;;25.90;70.50;25.90;99941.00;;;;344876;28;89798;-91
2022/06/17 00:51:34;;;;;;;;;;;25.90;70.60;25.80;99955.00;;;;346027;28;86369;-90
2022/06/17 00:51:59;;;;;;;;;;;25.90;70.50;25.80;99949.00;;;;349021;27;89369;-91
2022/06/17 00:52:26;;;;;;;;;;;25.90;70.30;25.80;99951.00;;;;347444;28;86732;-91
2022/06/17 00:52:41;;;;;;;;;;;25.90;70.30;25.80;99945.00;;;;349197;27;89656;-91
2022/06/17 00:53:02;;;;;;;;;;;25.90;70.20;25.80;99945.00;;;;347652;28;87476;-90
2022/06/17 00:53:29;;;;;;;;;;;25.90;70.50;25.80;99943.00;;;;347721;28;90179;-91
2022/06/17 00:53:49;;;;;;;;;;;25.90;70.50;25.70;99948.00;;;;349125;28;86936;-91
2022/06/17 00:54:19;;;;;;;;;;;25.90;70.60;25.60;99949.00;;;;349535;28;89140;-91
2022/06/17 00:54:45;;;;;;;;;;;25.80;71.00;25.70;99950.00;;;;345913;28;86852;-91
2022/06/17 00:55:30;;;;;;;;;;;25.80;70.60;25.70;99949.00;;;;347911;28;90145;-91
2022/06/17 00:55:44;;;;;;;;;;;25.80;70.50;25.60;99951.00;;;;348894;28;87177;-91
2022/06/17 00:56:09;;;;;;;;;;;25.80;70.80;25.70;99951.00;;;;350520;27;89120;-91
2022/06/17 00:56:29;;;;;;;;;;;25.70;70.60;25.60;99958.00;;;;347462;28;88146;-91
2022/06/17 00:56:41;;;;;;;;;;;25.80;70.60;25.70;99954.00;;;;347071;28;89751;-91
2022/06/17 00:56:53;;;;;;;;;;;25.70;70.50;25.60;99947.00;;;;346828;28;88089;-91
2022/06/17 00:57:20;;;;;;;;;;;25.70;70.70;25.70;99950.00;;;;346037;28;90498;-91
2022/06/17 00:57:37;;;;;;;;;;;25.70;70.50;25.70;99951.00;;;;342774;28;87075;-91
2022/06/17 00:57:48;;;;;;;;;;;25.70;70.60;25.70;99947.00;;;;348909;27;89351;-91
2022/06/17 00:58:02;;;;;;;;;;;25.70;70.60;25.70;99945.00;;;;347189;28;88258;-91
2022/06/17 00:58:20;;;;;;;;;;;25.70;70.50;25.70;99940.00;;;;345981;28;90493;-91
2022/06/17 00:59:04;;;;;;;;;;;25.70;70.60;25.70;99954.00;;;;344449;28;86903;-91
2022/06/17 00:59:16;;;;;;;;;;;25.70;70.60;25.70;99945.00;;;;339051;28;88609;-91
2022/06/17 00:59:28;;;;;;;;;;;25.70;70.70;25.70;99948.00;;;;344219;28;87147;-91
2022/06/17 00:59:40;;;;;;;;;;;25.80;70.80;25.70;99951.00;;;;345894;28;90857;-91
2022/06/17 01:00:04;;;;;;;;;;;25.80;70.80;25.70;99943.00;;;;344476;28;88246;-91
2022/06/17 01:00:20;;;;;;;;;;;25.80;70.70;25.60;99951.00;;;;344595;28;89903;-92
2022/06/17 01:00:32;;;;;;;;;;;25.70;70.40;25.70;99954.00;;;;345935;27;87100;-91
2022/06/17 01:00:44;;;;;;;;;;;25.70;70.40;25.60;99946.00;;;;345511;28;89723;-91
2022/06/17 01:00:58;;;;;;;;;;;25.70;70.60;25.70;99945.00;;;;345727;28;86947;-91
2022/06/17 01:01:10;;;;;;;;;;;25.70;70.70;25.70;99943.00;;;;340922;28;91717;-90
2022/06/17 01:01:24;;;;;;;;;;;25.70;70.40;25.60;99947.00;;;;337531;28;88036;-91
2022/06/17 01:02:09;;;;;;;;;;;25.70;70.40;25.60;99952.00;;;;341540;28;89295;-91
2022/06/17 01:02:22;;;;;;;;;;;25.70;70.40;25.60;99951.00;;;;341610;28;87049;-90
2022/06/17 01:02:37;;;;;;;;;;;25.70;70.60;25.50;99956.00;;;;341825;28;90459;-91
2022/06/17 01:02:53;;;;;;;;;;;25.70;71.10;25.50;99951.00;;;;342949;28;88693;-91
2022/06/17 01:03:07;;;;;;;;;;;25.70;70.50;25.60;99950.00;;;;341842;28;89006;-91
2022/06/17 01:03:26;;;;;;;;;;;25.70;70.70;25.50;99950.00;;;;343079;28;86965;-91
2022/06/17 01:03:38;;;;;;;;;;;25.60;70.50;25.50;99953.00;;;;343640;28;91295;-90
2022/06/17 01:03:54;;;;;;;;;;;25.60;70.70;25.50;99951.00;;;;344237;28;86059;-91
2022/06/17 01:04:05;;;;;;;;;;;25.60;70.80;25.50;99948.00;;;;343367;28;88483;-90
2022/06/17 01:04:20;;;;;;;;;;;25.60;70.50;25.40;99951.00;;;;342724;28;87683;-90
2022/06/17 01:04:41;;;;;;;;;;;25.60;70.50;25.50;99950.00;;;;341893;28;89402;-91
2022/06/17 01:04:52;;;;;;;;;;;25.60;70.50;25.50;99954.00;;;;344244;28;88416;-90
2022/06/17 01:05:04;;;;;;;;;;;25.60;70.50;25.60;99955.00;;;;343240;28;89422;-91
2022/06/17 01:05:18;;;;;;;;;;;25.60;70.60;25.50;99951.00;;;;341672;28;88135;-91
2022/06/17 01:05:42;;;;;;;;;;;25.60;70.90;25.50;99956.00;;;;341910;28;89089;-91
2022/06/17 01:05:56;;;;;;;;;;;25.60;70.70;25.50;99940.00;;;;342948;28;87572;-90
2022/06/17 01:06:08;;;;;;;;;;;25.60;70.80;25.50;99954.00;;;;345952;28;91039;-90
2022/06/17 01:06:22;;;;;;;;;;;25.60;70.80;25.40;99950.00;;;;342912;28;88461;-91
2022/06/17 01:06:35;;;;;;;;;;;25.60;70.70;25.40;99953.00;;;;344789;28;90962;-91
2022/06/17 01:06:54;;;;;;;;;;;25.60;70.70;25.50;99947.00;;;;342445;28;87003;-91
2022/06/17 01:07:14;;;;;;;;;;;25.60;70.60;25.50;99954.00;;;;344397;28;90627;-91
2022/06/17 01:07:27;;;;;;;;;;;25.60;70.70;25.50;99947.00;;;;344373;28;87640;-91
2022/06/17 01:07:45;;;;;;;;;;;25.60;70.80;25.50;99957.00;;;;344444;28;91058;-91
2022/06/17 01:08:01;;;;;;;;;;;25.60;71.00;25.50;99951.00;;;;342991;28;87736;-90
2022/06/17 01:10:08;;;;;;;;;;;25.60;70.90;25.50;99956.00;;;;341475;28;87914;-90
2022/06/17 01:10:20;;;;;;;;;;;25.50;70.90;25.50;99956.00;;;;343252;28;90800;-89
2022/06/17 01:10:32;;;;;;;;;;;25.50;70.90;25.40;99950.00;;;;343087;28;87058;-88
2022/06/17 01:10:46;;;;;;;;;;;25.50;70.80;25.50;99958.00;;;;341985;28;87616;-89
2022/06/17 01:10:58;;;;;;;;;;;25.50;70.70;25.40;99956.00;;;;341536;28;86920;-89
2022/06/17 01:11:11;;;;;;;;;;;25.50;70.90;25.40;99955.00;;;;340447;28;90976;-89
2022/06/17 01:11:24;;;;;;;;;;;25.50;70.70;25.40;99952.00;;;;342717;28;88457;-89
2022/06/17 01:11:36;;;;;;;;;;;25.50;70.80;25.40;99949.00;;;;341785;28;90407;-92
2022/06/17 01:11:48;;;;;;;;;;;25.50;70.90;25.40;99961.00;;;;340302;28;86867;-90
2022/06/17 01:12:03;;;;;;;;;;;25.50;70.90;25.40;99963.00;;;;341962;28;91501;-90
2022/06/17 01:12:16;;;;;;;;;;;25.50;70.80;25.50;99962.00;;;;340093;28;88282;-90
2022/06/17 01:12:35;;;;;;;;;;;25.50;71.30;25.40;99957.00;;;;341756;28;91234;-91
2022/06/17 01:12:52;;;;;;;;;;;25.50;70.70;25.50;99955.00;;;;342284;28;88762;-90
2022/06/17 01:13:05;;;;;;;;;;;25.50;70.70;25.40;99950.00;;;;342844;28;90164;-91
2022/06/17 01:13:17;;;;;;;;;;;25.50;71.10;25.40;99965.00;;;;341619;28;88315;-91
2022/06/17 01:13:29;;;;;;;;;;;25.50;70.90;25.50;99960.00;;;;340341;28;91208;-90
2022/06/17 01:13:41;;;;;;;;;;;25.50;70.80;25.50;99962.00;;;;342406;28;87322;-90
2022/06/17 01:13:53;;;;;;;;;;;25.50;70.80;25.40;99964.00;;;;344663;28;88357;-91
2022/06/17 01:14:05;;;;;;;;;;;25.50;70.90;25.40;99959.00;;;;341555;28;87439;-90
2022/06/17 01:14:17;;;;;;;;;;;25.50;70.80;25.40;99957.00;;;;341643;28;89626;-90
2022/06/17 01:14:29;;;;;;;;;;;25.50;70.90;25.40;99951.00;;;;344229;28;87060;-91
2022/06/17 01:14:42;;;;;;;;;;;25.50;71.00;25.40;99963.00;;;;343210;28;91099;-90
2022/06/17 01:14:54;;;;;;;;;;;25.50;70.90;25.40;99963.00;;;;344363;28;88170;-90
2022/06/17 01:15:06;;;;;;;;;;;25.50;71.10;25.40;99958.00;;;;342897;28;89191;-90
2022/06/17 01:15:21;;;;;;;;;;;25.50;71.20;25.40;99957.00;;;;342822;28;87774;-91
2022/06/17 01:15:33;;;;;;;;;;;25.50;71.00;25.50;99962.00;;;;342743;28;90707;-90
2022/06/17 01:15:45;;;;;;;;;;;25.50;70.90;25.50;99962.00;;;;341049;28;88335;-90
2022/06/17 01:15:57;;;;;;;;;;;25.50;70.80;25.50;99965.00;;;;333880;29;90061;-91
2022/06/17 01:16:09;;;;;;;;;;;25.50;70.80;25.40;99966.00;;;;343893;28;87755;-90
2022/06/17 01:16:27;;;;;;;;;;;25.50;70.90;25.50;99966.00;;;;341932;28;89857;-91